sensor_id;sensor_type;location;lat;lon;timestamp;pressure;altitude;pressure_sealevel;temperature;humidity
77019;BME280;66044;53.142;17.962;2023-05-16T00:01:37;99897.34;;;12.87;75.55
77019;BME280;66044;53.142;17.962;2023-05-16T00:04:03;99898.65;;;12.88;75.31
77019;BME280;66044;53.142;17.962;2023-05-16T00:06:30;99897.99;;;12.89;75.32
77019;BME280;66044;53.142;17.962;2023-05-16T00:08:57;99900.86;;;12.90;75.39
77019;BME280;66044;53.142;17.962;2023-05-16T00:11:23;99896.97;;;12.91;75.47
77019;BME280;66044;53.142;17.962;2023-05-16T00:13:50;99907.14;;;12.91;75.18
77019;BME280;66044;53.142;17.962;2023-05-16T00:16:16;99903.40;;;12.90;75.36
77019;BME280;66044;53.142;17.962;2023-05-16T00:18:43;99906.90;;;12.88;75.21
77019;BME280;66044;53.142;17.962;2023-05-16T00:21:10;99907.64;;;12.90;75.41
77019;BME280;66044;53.142;17.962;2023-05-16T00:23:37;99904.07;;;12.92;75.30
77019;BME280;66044;53.142;17.962;2023-05-16T00:26:03;99904.45;;;12.92;75.27
77019;BME280;66044;53.142;17.962;2023-05-16T00:28:30;99903.31;;;12.89;75.04
77019;BME280;66044;53.142;17.962;2023-05-16T00:30:57;99908.91;;;12.88;75.30
77019;BME280;66044;53.142;17.962;2023-05-16T00:33:23;99909.59;;;12.88;75.01
77019;BME280;66044;53.142;17.962;2023-05-16T00:35:50;99914.77;;;12.89;75.09
77019;BME280;66044;53.142;17.962;2023-05-16T00:38:16;99915.31;;;12.89;74.90
77019;BME280;66044;53.142;17.962;2023-05-16T00:40:43;99915.21;;;12.88;74.85
77019;BME280;66044;53.142;17.962;2023-05-16T00:43:09;99918.39;;;12.88;74.99
77019;BME280;66044;53.142;17.962;2023-05-16T00:45:36;99917.48;;;12.89;75.03
77019;BME280;66044;53.142;17.962;2023-05-16T00:48:02;99916.93;;;12.89;74.71
77019;BME280;66044;53.142;17.962;2023-05-16T00:50:29;99915.61;;;12.88;74.73
77019;BME280;66044;53.142;17.962;2023-05-16T00:52:55;99921.82;;;12.86;74.66
77019;BME280;66044;53.142;17.962;2023-05-16T00:55:22;99919.17;;;12.84;74.51
77019;BME280;66044;53.142;17.962;2023-05-16T00:57:49;99924.63;;;12.83;74.60
77019;BME280;66044;53.142;17.962;2023-05-16T01:00:15;99924.49;;;12.86;74.66
77019;BME280;66044;53.142;17.962;2023-05-16T01:02:42;99928.58;;;12.85;74.41
77019;BME280;66044;53.142;17.962;2023-05-16T01:05:09;99928.73;;;12.81;74.23
77019;BME280;66044;53.142;17.962;2023-05-16T01:07:36;99931.90;;;12.76;74.48
77019;BME280;66044;53.142;17.962;2023-05-16T01:10:04;99931.08;;;12.74;74.68
77019;BME280;66044;53.142;17.962;2023-05-16T01:12:54;99929.66;;;12.72;74.35
77019;BME280;66044;53.142;17.962;2023-05-16T01:15:49;99931.28;;;12.72;74.34
77019;BME280;66044;53.142;17.962;2023-05-16T01:18:30;99931.80;;;12.72;74.35
77019;BME280;66044;53.142;17.962;2023-05-16T01:21:07;99936.36;;;12.72;74.14
77019;BME280;66044;53.142;17.962;2023-05-16T01:23:59;99935.71;;;12.70;74.23
77019;BME280;66044;53.142;17.962;2023-05-16T01:26:29;99938.90;;;12.68;74.35
77019;BME280;66044;53.142;17.962;2023-05-16T01:28:57;99941.20;;;12.67;74.12
77019;BME280;66044;53.142;17.962;2023-05-16T01:31:24;99941.27;;;12.67;74.40
77019;BME280;66044;53.142;17.962;2023-05-16T01:33:50;99947.55;;;12.69;74.31
77019;BME280;66044;53.142;17.962;2023-05-16T01:36:25;99947.48;;;12.69;74.38
77019;BME280;66044;53.142;17.962;2023-05-16T01:39:00;99947.98;;;12.67;74.22
77019;BME280;66044;53.142;17.962;2023-05-16T01:44:15;99953.79;;;12.65;74.31
77019;BME280;66044;53.142;17.962;2023-05-16T01:46:44;99959.30;;;12.64;74.39
77019;BME280;66044;53.142;17.962;2023-05-16T01:49:20;99962.60;;;12.64;74.00
77019;BME280;66044;53.142;17.962;2023-05-16T01:51:51;99964.38;;;12.64;74.38
77019;BME280;66044;53.142;17.962;2023-05-16T01:54:20;99964.75;;;12.62;74.16
77019;BME280;66044;53.142;17.962;2023-05-16T01:56:52;99959.44;;;12.62;74.05
77019;BME280;66044;53.142;17.962;2023-05-16T01:59:19;99963.50;;;12.62;74.03
77019;BME280;66044;53.142;17.962;2023-05-16T02:01:47;99960.88;;;12.61;73.98
77019;BME280;66044;53.142;17.962;2023-05-16T02:04:13;99967.04;;;12.61;74.27
77019;BME280;66044;53.142;17.962;2023-05-16T02:06:41;99967.02;;;12.60;73.86
77019;BME280;66044;53.142;17.962;2023-05-16T02:09:07;99973.33;;;12.60;73.99
77019;BME280;66044;53.142;17.962;2023-05-16T02:11:34;99975.59;;;12.61;73.97
77019;BME280;66044;53.142;17.962;2023-05-16T02:14:01;99979.69;;;12.62;74.04
77019;BME280;66044;53.142;17.962;2023-05-16T02:16:29;99985.55;;;12.64;74.25
77019;BME280;66044;53.142;17.962;2023-05-16T02:18:56;99992.74;;;12.65;73.87
77019;BME280;66044;53.142;17.962;2023-05-16T02:21:22;99992.08;;;12.63;73.74
77019;BME280;66044;53.142;17.962;2023-05-16T02:23:49;99998.69;;;12.62;73.85
77019;BME280;66044;53.142;17.962;2023-05-16T02:26:15;99998.13;;;12.61;74.10
77019;BME280;66044;53.142;17.962;2023-05-16T02:28:41;100004.41;;;12.59;73.84
77019;BME280;66044;53.142;17.962;2023-05-16T02:31:08;100003.55;;;12.59;73.80
77019;BME280;66044;53.142;17.962;2023-05-16T02:33:34;100005.97;;;12.60;73.69
77019;BME280;66044;53.142;17.962;2023-05-16T02:36:01;100013.90;;;12.60;73.67
77019;BME280;66044;53.142;17.962;2023-05-16T02:38:27;100018.23;;;12.61;73.31
77019;BME280;66044;53.142;17.962;2023-05-16T02:40:54;100018.31;;;12.62;73.38
77019;BME280;66044;53.142;17.962;2023-05-16T02:43:20;100025.66;;;12.60;72.98
77019;BME280;66044;53.142;17.962;2023-05-16T02:45:46;100026.83;;;12.60;73.11
77019;BME280;66044;53.142;17.962;2023-05-16T02:48:13;100029.82;;;12.60;73.34
77019;BME280;66044;53.142;17.962;2023-05-16T02:50:39;100034.73;;;12.59;73.34
77019;BME280;66044;53.142;17.962;2023-05-16T02:53:06;100036.39;;;12.58;73.19
77019;BME280;66044;53.142;17.962;2023-05-16T02:55:32;100041.27;;;12.55;73.23
77019;BME280;66044;53.142;17.962;2023-05-16T02:57:59;100038.19;;;12.55;73.24
77019;BME280;66044;53.142;17.962;2023-05-16T03:00:25;100042.04;;;12.54;73.07
77019;BME280;66044;53.142;17.962;2023-05-16T03:02:52;100044.71;;;12.54;72.97
77019;BME280;66044;53.142;17.962;2023-05-16T03:05:19;100048.63;;;12.53;72.99
77019;BME280;66044;53.142;17.962;2023-05-16T03:07:45;100049.33;;;12.51;73.09
77019;BME280;66044;53.142;17.962;2023-05-16T03:10:11;100059.52;;;12.48;72.98
77019;BME280;66044;53.142;17.962;2023-05-16T03:12:38;100061.13;;;12.47;72.90
77019;BME280;66044;53.142;17.962;2023-05-16T03:15:05;100060.77;;;12.46;73.02
77019;BME280;66044;53.142;17.962;2023-05-16T03:17:33;100065.80;;;12.47;72.92
77019;BME280;66044;53.142;17.962;2023-05-16T03:20:00;100069.12;;;12.48;72.55
77019;BME280;66044;53.142;17.962;2023-05-16T03:22:26;100076.40;;;12.50;72.89
77019;BME280;66044;53.142;17.962;2023-05-16T03:24:53;100076.43;;;12.51;72.77
77019;BME280;66044;53.142;17.962;2023-05-16T03:27:21;100084.95;;;12.50;73.07
77019;BME280;66044;53.142;17.962;2023-05-16T03:29:48;100083.13;;;12.48;72.66
77019;BME280;66044;53.142;17.962;2023-05-16T03:32:14;100089.56;;;12.46;73.08
77019;BME280;66044;53.142;17.962;2023-05-16T03:34:41;100091.05;;;12.44;73.12
77019;BME280;66044;53.142;17.962;2023-05-16T03:37:07;100087.52;;;12.44;72.84
77019;BME280;66044;53.142;17.962;2023-05-16T03:39:36;100090.49;;;12.43;72.94
77019;BME280;66044;53.142;17.962;2023-05-16T03:42:02;100089.55;;;12.42;72.80
77019;BME280;66044;53.142;17.962;2023-05-16T03:44:29;100090.02;;;12.45;72.87
77019;BME280;66044;53.142;17.962;2023-05-16T03:46:56;100101.33;;;12.49;72.95
77019;BME280;66044;53.142;17.962;2023-05-16T03:49:25;100106.34;;;12.53;72.50
77019;BME280;66044;53.142;17.962;2023-05-16T03:51:53;100106.73;;;12.53;72.63
77019;BME280;66044;53.142;17.962;2023-05-16T03:54:19;100113.64;;;12.52;72.57
77019;BME280;66044;53.142;17.962;2023-05-16T03:56:45;100113.71;;;12.52;72.84
77019;BME280;66044;53.142;17.962;2023-05-16T03:59:12;100113.61;;;12.54;72.85
77019;BME280;66044;53.142;17.962;2023-05-16T04:01:38;100118.09;;;12.65;72.74
77019;BME280;66044;53.142;17.962;2023-05-16T04:04:05;100116.09;;;12.92;72.45
77019;BME280;66044;53.142;17.962;2023-05-16T04:06:32;100120.17;;;13.42;71.81
77019;BME280;66044;53.142;17.962;2023-05-16T04:08:59;100125.73;;;14.06;70.93
77019;BME280;66044;53.142;17.962;2023-05-16T04:11:25;100133.31;;;14.03;70.64
77019;BME280;66044;53.142;17.962;2023-05-16T04:13:52;100134.62;;;13.92;70.70
77019;BME280;66044;53.142;17.962;2023-05-16T04:16:19;100145.66;;;13.84;70.54
77019;BME280;66044;53.142;17.962;2023-05-16T04:18:45;100147.00;;;13.77;70.41
77019;BME280;66044;53.142;17.962;2023-05-16T04:21:12;100149.50;;;13.70;70.41
77019;BME280;66044;53.142;17.962;2023-05-16T04:23:40;100151.24;;;13.64;70.46
77019;BME280;66044;53.142;17.962;2023-05-16T04:26:07;100149.38;;;13.58;70.51
77019;BME280;66044;53.142;17.962;2023-05-16T04:28:34;100150.67;;;13.53;70.50
77019;BME280;66044;53.142;17.962;2023-05-16T04:31:01;100157.00;;;13.53;70.56
77019;BME280;66044;53.142;17.962;2023-05-16T04:33:28;100168.64;;;13.53;70.41
77019;BME280;66044;53.142;17.962;2023-05-16T04:35:54;100178.34;;;13.49;70.46
77019;BME280;66044;53.142;17.962;2023-05-16T04:38:23;100183.53;;;13.42;70.42
77019;BME280;66044;53.142;17.962;2023-05-16T04:40:49;100189.29;;;13.41;70.54
77019;BME280;66044;53.142;17.962;2023-05-16T04:43:17;100196.69;;;13.37;70.73
77019;BME280;66044;53.142;17.962;2023-05-16T04:45:43;100197.69;;;13.33;70.71
77019;BME280;66044;53.142;17.962;2023-05-16T04:48:10;100204.88;;;13.34;70.58
77019;BME280;66044;53.142;17.962;2023-05-16T04:50:37;100203.92;;;13.40;70.40
77019;BME280;66044;53.142;17.962;2023-05-16T04:53:03;100206.09;;;13.44;70.34
77019;BME280;66044;53.142;17.962;2023-05-16T04:55:30;100209.81;;;13.50;70.22
77019;BME280;66044;53.142;17.962;2023-05-16T04:57:56;100213.92;;;13.55;70.06
77019;BME280;66044;53.142;17.962;2023-05-16T05:00:23;100218.77;;;13.70;70.02
77019;BME280;66044;53.142;17.962;2023-05-16T05:02:50;100224.09;;;13.96;69.55
77019;BME280;66044;53.142;17.962;2023-05-16T05:05:16;100229.89;;;14.32;69.13
77019;BME280;66044;53.142;17.962;2023-05-16T05:07:43;100230.64;;;14.79;68.46
77019;BME280;66044;53.142;17.962;2023-05-16T05:10:09;100237.20;;;15.84;67.28
77019;BME280;66044;53.142;17.962;2023-05-16T05:12:36;100244.36;;;16.81;65.70
77019;BME280;66044;53.142;17.962;2023-05-16T05:15:04;100253.25;;;16.76;64.96
77019;BME280;66044;53.142;17.962;2023-05-16T05:17:31;100260.98;;;16.38;64.55
77019;BME280;66044;53.142;17.962;2023-05-16T05:19:57;100271.55;;;16.01;64.52
77019;BME280;66044;53.142;17.962;2023-05-16T05:22:24;100275.64;;;15.93;64.40
77019;BME280;66044;53.142;17.962;2023-05-16T05:24:50;100280.57;;;16.72;63.42
77019;BME280;66044;53.142;17.962;2023-05-16T05:27:17;100284.20;;;16.90;62.98
77019;BME280;66044;53.142;17.962;2023-05-16T05:29:43;100291.80;;;16.82;62.66
77019;BME280;66044;53.142;17.962;2023-05-16T05:32:10;100293.15;;;16.57;62.72
77019;BME280;66044;53.142;17.962;2023-05-16T05:34:36;100292.86;;;16.35;62.53
77019;BME280;66044;53.142;17.962;2023-05-16T05:37:02;100298.77;;;16.28;62.63
77019;BME280;66044;53.142;17.962;2023-05-16T05:39:29;100304.13;;;16.21;62.53
77019;BME280;66044;53.142;17.962;2023-05-16T05:41:55;100311.47;;;16.21;62.58
77019;BME280;66044;53.142;17.962;2023-05-16T05:44:22;100313.16;;;16.06;62.72
77019;BME280;66044;53.142;17.962;2023-05-16T05:46:48;100318.45;;;15.87;62.66
77019;BME280;66044;53.142;17.962;2023-05-16T05:49:15;100315.64;;;15.71;62.70
77019;BME280;66044;53.142;17.962;2023-05-16T05:51:42;100321.06;;;15.66;63.10
77019;BME280;66044;53.142;17.962;2023-05-16T05:54:08;100317.37;;;15.67;63.14
77019;BME280;66044;53.142;17.962;2023-05-16T05:56:35;100318.95;;;15.70;63.12
77019;BME280;66044;53.142;17.962;2023-05-16T05:59:01;100325.17;;;15.93;63.04
77019;BME280;66044;53.142;17.962;2023-05-16T06:01:28;100333.02;;;16.23;62.67
77019;BME280;66044;53.142;17.962;2023-05-16T06:03:55;100335.09;;;16.14;62.36
77019;BME280;66044;53.142;17.962;2023-05-16T06:06:22;100332.13;;;16.66;62.03
77019;BME280;66044;53.142;17.962;2023-05-16T06:08:48;100330.11;;;16.84;61.62
77019;BME280;66044;53.142;17.962;2023-05-16T06:11:15;100326.70;;;16.84;61.30
77019;BME280;66044;53.142;17.962;2023-05-16T06:13:41;100328.08;;;17.03;60.85
77019;BME280;66044;53.142;17.962;2023-05-16T06:16:07;100326.47;;;17.29;60.35
77019;BME280;66044;53.142;17.962;2023-05-16T06:18:34;100327.97;;;17.34;59.95
77019;BME280;66044;53.142;17.962;2023-05-16T06:21:00;100331.36;;;17.18;60.12
77019;BME280;66044;53.142;17.962;2023-05-16T06:23:27;100332.88;;;17.12;59.86
77019;BME280;66044;53.142;17.962;2023-05-16T06:25:53;100342.05;;;16.93;60.07
77019;BME280;66044;53.142;17.962;2023-05-16T06:28:20;100344.77;;;16.73;60.32
77019;BME280;66044;53.142;17.962;2023-05-16T06:30:46;100346.49;;;16.54;60.36
77019;BME280;66044;53.142;17.962;2023-05-16T06:33:14;100354.73;;;16.33;60.84
77019;BME280;66044;53.142;17.962;2023-05-16T06:35:40;100368.41;;;16.16;60.96
77019;BME280;66044;53.142;17.962;2023-05-16T06:38:07;100368.70;;;16.01;61.24
77019;BME280;66044;53.142;17.962;2023-05-16T06:40:33;100377.85;;;15.90;61.56
77019;BME280;66044;53.142;17.962;2023-05-16T06:43:00;100387.48;;;15.75;61.57
77019;BME280;66044;53.142;17.962;2023-05-16T06:45:26;100393.48;;;15.60;61.86
77019;BME280;66044;53.142;17.962;2023-05-16T06:47:53;100396.64;;;15.45;61.90
77019;BME280;66044;53.142;17.962;2023-05-16T06:50:20;100402.30;;;15.31;62.20
77019;BME280;66044;53.142;17.962;2023-05-16T06:52:46;100398.66;;;15.20;62.42
77019;BME280;66044;53.142;17.962;2023-05-16T06:55:13;100402.79;;;15.07;62.71
77019;BME280;66044;53.142;17.962;2023-05-16T06:57:39;100409.30;;;14.99;62.88
77019;BME280;66044;53.142;17.962;2023-05-16T07:00:06;100412.69;;;14.94;63.10
77019;BME280;66044;53.142;17.962;2023-05-16T07:02:33;100420.18;;;14.89;63.14
77019;BME280;66044;53.142;17.962;2023-05-16T07:05:00;100425.68;;;14.90;63.34
77019;BME280;66044;53.142;17.962;2023-05-16T07:07:26;100430.04;;;14.96;63.12
77019;BME280;66044;53.142;17.962;2023-05-16T07:09:53;100431.72;;;15.09;63.33
77019;BME280;66044;53.142;17.962;2023-05-16T07:12:19;100438.67;;;15.32;63.14
77019;BME280;66044;53.142;17.962;2023-05-16T07:14:46;100445.70;;;15.87;62.30
77019;BME280;66044;53.142;17.962;2023-05-16T07:17:12;100453.30;;;15.95;62.02
77019;BME280;66044;53.142;17.962;2023-05-16T07:19:39;100463.82;;;15.93;62.16
77019;BME280;66044;53.142;17.962;2023-05-16T07:22:06;100466.15;;;15.89;62.25
77019;BME280;66044;53.142;17.962;2023-05-16T07:24:32;100463.55;;;15.85;62.02
77019;BME280;66044;53.142;17.962;2023-05-16T07:26:58;100465.89;;;15.76;61.89
77019;BME280;66044;53.142;17.962;2023-05-16T07:29:25;100469.83;;;15.70;62.01
77019;BME280;66044;53.142;17.962;2023-05-16T07:31:51;100473.84;;;15.64;62.18
77019;BME280;66044;53.142;17.962;2023-05-16T07:34:18;100484.08;;;15.61;62.22
77019;BME280;66044;53.142;17.962;2023-05-16T07:36:44;100486.52;;;15.58;62.24
77019;BME280;66044;53.142;17.962;2023-05-16T07:39:11;100492.99;;;15.57;62.10
77019;BME280;66044;53.142;17.962;2023-05-16T07:41:37;100492.90;;;15.71;62.00
77019;BME280;66044;53.142;17.962;2023-05-16T07:44:04;100496.89;;;16.25;61.70
77019;BME280;66044;53.142;17.962;2023-05-16T07:46:30;100503.11;;;17.17;60.60
77019;BME280;66044;53.142;17.962;2023-05-16T07:48:57;100516.02;;;18.17;59.23
77019;BME280;66044;53.142;17.962;2023-05-16T07:51:23;100520.27;;;18.46;58.43
77019;BME280;66044;53.142;17.962;2023-05-16T07:53:49;100531.23;;;18.57;57.79
77019;BME280;66044;53.142;17.962;2023-05-16T07:56:17;100543.80;;;18.55;57.59
77019;BME280;66044;53.142;17.962;2023-05-16T07:58:43;100547.75;;;18.40;57.33
77019;BME280;66044;53.142;17.962;2023-05-16T08:01:09;100556.58;;;18.18;57.06
77019;BME280;66044;53.142;17.962;2023-05-16T08:03:37;100553.13;;;18.03;57.12
77019;BME280;66044;53.142;17.962;2023-05-16T08:06:03;100560.66;;;17.90;57.22
77019;BME280;66044;53.142;17.962;2023-05-16T08:08:29;100566.71;;;17.69;57.22
77019;BME280;66044;53.142;17.962;2023-05-16T08:10:56;100566.69;;;17.53;57.36
77019;BME280;66044;53.142;17.962;2023-05-16T08:13:22;100572.64;;;17.32;57.46
77019;BME280;66044;53.142;17.962;2023-05-16T08:15:49;100566.73;;;17.23;57.67
77019;BME280;66044;53.142;17.962;2023-05-16T08:18:15;100571.98;;;17.21;57.63
77019;BME280;66044;53.142;17.962;2023-05-16T08:20:42;100574.83;;;17.19;57.78
77019;BME280;66044;53.142;17.962;2023-05-16T08:23:08;100568.71;;;17.20;57.37
77019;BME280;66044;53.142;17.962;2023-05-16T08:25:35;100566.35;;;17.24;57.38
77019;BME280;66044;53.142;17.962;2023-05-16T08:28:01;100566.63;;;17.20;57.48
77019;BME280;66044;53.142;17.962;2023-05-16T08:30:28;100568.61;;;17.26;57.33
77019;BME280;66044;53.142;17.962;2023-05-16T08:32:54;100570.46;;;17.49;57.12
77019;BME280;66044;53.142;17.962;2023-05-16T08:35:21;100562.21;;;17.81;57.00
77019;BME280;66044;53.142;17.962;2023-05-16T08:37:47;100563.15;;;18.01;56.66
77019;BME280;66044;53.142;17.962;2023-05-16T08:40:14;100561.55;;;18.18;56.44
77019;BME280;66044;53.142;17.962;2023-05-16T08:42:41;100562.60;;;18.54;56.09
77019;BME280;66044;53.142;17.962;2023-05-16T08:45:08;100561.50;;;18.87;55.51
77019;BME280;66044;53.142;17.962;2023-05-16T08:47:36;100569.45;;;19.22;54.98
77019;BME280;66044;53.142;17.962;2023-05-16T08:50:08;100579.17;;;19.62;54.25
77019;BME280;66044;53.142;17.962;2023-05-16T08:52:36;100577.44;;;20.00;53.88
77019;BME280;66044;53.142;17.962;2023-05-16T08:55:03;100576.85;;;20.36;53.11
77019;BME280;66044;53.142;17.962;2023-05-16T08:57:31;100574.77;;;20.54;52.38
77019;BME280;66044;53.142;17.962;2023-05-16T08:59:59;100576.52;;;20.70;52.17
77019;BME280;66044;53.142;17.962;2023-05-16T09:02:26;100573.41;;;20.65;51.80
77019;BME280;66044;53.142;17.962;2023-05-16T09:04:55;100579.34;;;20.36;51.38
77019;BME280;66044;53.142;17.962;2023-05-16T09:07:22;100584.20;;;20.18;51.15
77019;BME280;66044;53.142;17.962;2023-05-16T09:09:50;100586.23;;;20.23;50.89
77019;BME280;66044;53.142;17.962;2023-05-16T09:12:16;100582.85;;;20.32;50.75
77019;BME280;66044;53.142;17.962;2023-05-16T09:14:42;100577.55;;;20.42;50.53
77019;BME280;66044;53.142;17.962;2023-05-16T09:17:10;100571.11;;;20.57;50.04
77019;BME280;66044;53.142;17.962;2023-05-16T09:19:41;100568.93;;;20.55;49.65
77019;BME280;66044;53.142;17.962;2023-05-16T09:22:10;100564.17;;;20.53;49.54
77019;BME280;66044;53.142;17.962;2023-05-16T09:24:41;100561.67;;;20.54;49.67
77019;BME280;66044;53.142;17.962;2023-05-16T09:29:35;100565.63;;;20.43;49.11
77019;BME280;66044;53.142;17.962;2023-05-16T09:32:28;100564.75;;;20.45;49.13
77019;BME280;66044;53.142;17.962;2023-05-16T09:34:56;100562.95;;;20.47;48.86
77019;BME280;66044;53.142;17.962;2023-05-16T09:37:24;100568.55;;;20.47;49.09
77019;BME280;66044;53.142;17.962;2023-05-16T09:39:52;100578.30;;;20.48;49.09
77019;BME280;66044;53.142;17.962;2023-05-16T09:42:20;100580.84;;;20.60;48.83
77019;BME280;66044;53.142;17.962;2023-05-16T09:44:49;100586.11;;;20.68;48.69
77019;BME280;66044;53.142;17.962;2023-05-16T09:47:20;100586.41;;;20.71;48.83
77019;BME280;66044;53.142;17.962;2023-05-16T09:49:51;100584.34;;;20.81;48.57
77019;BME280;66044;53.142;17.962;2023-05-16T09:52:18;100585.27;;;20.84;48.16
77019;BME280;66044;53.142;17.962;2023-05-16T09:54:45;100592.67;;;20.87;48.22
77019;BME280;66044;53.142;17.962;2023-05-16T09:57:18;100598.44;;;20.88;48.10
77019;BME280;66044;53.142;17.962;2023-05-16T09:59:45;100606.21;;;20.94;48.26
77019;BME280;66044;53.142;17.962;2023-05-16T10:02:12;100604.45;;;21.02;48.03
77019;BME280;66044;53.142;17.962;2023-05-16T10:04:39;100598.70;;;21.15;47.93
77019;BME280;66044;53.142;17.962;2023-05-16T10:07:05;100593.06;;;21.22;47.82
77019;BME280;66044;53.142;17.962;2023-05-16T10:09:35;100595.50;;;21.29;47.46
77019;BME280;66044;53.142;17.962;2023-05-16T10:12:04;100598.79;;;21.29;47.33
77019;BME280;66044;53.142;17.962;2023-05-16T10:14:35;100600.11;;;21.30;47.52
77019;BME280;66044;53.142;17.962;2023-05-16T10:17:03;100601.98;;;21.29;47.48
77019;BME280;66044;53.142;17.962;2023-05-16T10:19:35;100610.14;;;21.24;47.38
77019;BME280;66044;53.142;17.962;2023-05-16T10:22:04;100619.66;;;21.25;47.49
77019;BME280;66044;53.142;17.962;2023-05-16T10:27:10;100641.84;;;21.38;47.09
77019;BME280;66044;53.142;17.962;2023-05-16T10:29:38;100652.35;;;21.43;46.66
77019;BME280;66044;53.142;17.962;2023-05-16T10:32:07;100659.13;;;21.47;46.52
77019;BME280;66044;53.142;17.962;2023-05-16T10:34:33;100656.55;;;21.56;46.72
77019;BME280;66044;53.142;17.962;2023-05-16T10:37:00;100649.21;;;21.58;46.36
77019;BME280;66044;53.142;17.962;2023-05-16T10:39:28;100655.73;;;21.52;46.19
77019;BME280;66044;53.142;17.962;2023-05-16T10:41:55;100652.50;;;21.58;46.07
77019;BME280;66044;53.142;17.962;2023-05-16T10:44:21;100647.78;;;21.62;46.02
77019;BME280;66044;53.142;17.962;2023-05-16T10:46:48;100643.09;;;21.64;45.98
77019;BME280;66044;53.142;17.962;2023-05-16T10:49:22;100638.20;;;21.67;46.19
77019;BME280;66044;53.142;17.962;2023-05-16T10:57:07;100637.96;;;21.68;46.03
77019;BME280;66044;53.142;17.962;2023-05-16T11:02:22;100634.96;;;21.83;44.88
77019;BME280;66044;53.142;17.962;2023-05-16T11:04:58;100643.67;;;21.89;44.78
77019;BME280;66044;53.142;17.962;2023-05-16T11:07:32;100645.92;;;21.90;44.78
77019;BME280;66044;53.142;17.962;2023-05-16T11:10:08;100651.89;;;21.87;44.92
77019;BME280;66044;53.142;17.962;2023-05-16T11:15:25;100660.67;;;21.81;44.78
77019;BME280;66044;53.142;17.962;2023-05-16T11:18:09;100665.98;;;21.85;44.73
77019;BME280;66044;53.142;17.962;2023-05-16T11:20:39;100668.56;;;21.84;44.69
77019;BME280;66044;53.142;17.962;2023-05-16T11:25:46;100671.41;;;21.80;44.58
77019;BME280;66044;53.142;17.962;2023-05-16T11:28:13;100677.38;;;21.73;44.62
77019;BME280;66044;53.142;17.962;2023-05-16T11:30:48;100676.12;;;21.74;44.59
77019;BME280;66044;53.142;17.962;2023-05-16T11:33:15;100679.60;;;21.70;44.62
77019;BME280;66044;53.142;17.962;2023-05-16T11:35:43;100685.75;;;21.62;44.61
77019;BME280;66044;53.142;17.962;2023-05-16T11:38:14;100688.25;;;21.60;44.72
77019;BME280;66044;53.142;17.962;2023-05-16T11:40:43;100689.10;;;21.61;44.94
77019;BME280;66044;53.142;17.962;2023-05-16T11:43:09;100693.50;;;21.58;44.78
77019;BME280;66044;53.142;17.962;2023-05-16T11:45:36;100689.31;;;21.54;44.72
77019;BME280;66044;53.142;17.962;2023-05-16T11:48:03;100685.27;;;21.48;44.80
77019;BME280;66044;53.142;17.962;2023-05-16T11:50:30;100690.45;;;21.45;44.94
77019;BME280;66044;53.142;17.962;2023-05-16T11:52:56;100690.29;;;21.46;45.00
77019;BME280;66044;53.142;17.962;2023-05-16T11:55:29;100701.74;;;21.51;45.08
77019;BME280;66044;53.142;17.962;2023-05-16T11:57:57;100702.80;;;21.57;44.72
77019;BME280;66044;53.142;17.962;2023-05-16T12:00:25;100702.25;;;21.57;44.79
77019;BME280;66044;53.142;17.962;2023-05-16T12:02:57;100705.36;;;21.46;44.80
77019;BME280;66044;53.142;17.962;2023-05-16T12:05:26;100715.86;;;21.38;45.08
77019;BME280;66044;53.142;17.962;2023-05-16T12:07:54;100722.77;;;21.32;45.15
77019;BME280;66044;53.142;17.962;2023-05-16T12:10:20;100722.18;;;21.22;45.19
77019;BME280;66044;53.142;17.962;2023-05-16T12:12:49;100726.25;;;21.14;45.32
77019;BME280;66044;53.142;17.962;2023-05-16T12:15:18;100729.39;;;21.05;45.67
77019;BME280;66044;53.142;17.962;2023-05-16T12:17:45;100729.43;;;20.93;45.77
77019;BME280;66044;53.142;17.962;2023-05-16T12:20:14;100729.36;;;20.83;45.87
77019;BME280;66044;53.142;17.962;2023-05-16T12:22:43;100729.38;;;20.79;46.06
77019;BME280;66044;53.142;17.962;2023-05-16T12:27:46;100736.79;;;20.77;46.56
77019;BME280;66044;53.142;17.962;2023-05-16T12:30:16;100738.36;;;20.75;46.46
77019;BME280;66044;53.142;17.962;2023-05-16T12:32:42;100738.45;;;20.70;46.21
77019;BME280;66044;53.142;17.962;2023-05-16T12:35:10;100737.75;;;20.63;46.40
77019;BME280;66044;53.142;17.962;2023-05-16T12:37:38;100741.27;;;20.67;46.33
77019;BME280;66044;53.142;17.962;2023-05-16T12:40:05;100742.41;;;20.76;46.45
77019;BME280;66044;53.142;17.962;2023-05-16T12:42:34;100739.44;;;20.82;46.22
77019;BME280;66044;53.142;17.962;2023-05-16T12:45:01;100736.69;;;20.93;46.15
77019;BME280;66044;53.142;17.962;2023-05-16T12:47:34;100743.38;;;20.98;45.90
77019;BME280;66044;53.142;17.962;2023-05-16T12:50:02;100742.91;;;21.01;45.68
77019;BME280;66044;53.142;17.962;2023-05-16T12:52:29;100749.92;;;21.01;45.56
77019;BME280;66044;53.142;17.962;2023-05-16T12:54:56;100750.18;;;20.97;45.74
77019;BME280;66044;53.142;17.962;2023-05-16T12:57:23;100757.14;;;20.89;45.64
77019;BME280;66044;53.142;17.962;2023-05-16T12:59:49;100761.60;;;20.77;45.87
77019;BME280;66044;53.142;17.962;2023-05-16T13:02:16;100767.98;;;20.87;50.27
77019;BME280;66044;53.142;17.962;2023-05-16T13:04:44;100765.27;;;20.66;49.92
77019;BME280;66044;53.142;17.962;2023-05-16T13:07:10;100759.52;;;20.43;49.34
77019;BME280;66044;53.142;17.962;2023-05-16T13:09:37;100759.11;;;20.29;49.53